ŁEMKO MARATON 48
Łemkowyna Ultra-Trail
Organizator : Fundacja Ultra
Data : 2022-10-22
Miejsce : Komańcza
Dystans : 47.7 km
Mapa : Pokaż
Zgłoszonych : 384
Wystartowało : 310
Nie ukończyło : 4
Ukończyło : 306
Na trasie : 0
Pełne wyniki :
Uproszczone :
Klasyfikacje w punktach pomiarowych: Start | 18.7km | 34.2km | Meta
Klasyfikacje wg kategorii: Wszyscy | Open K | Open M
Klasyfikacja wg czasu brutto. Wyniki nieoficjalne !!!
MscZawodnikNumerKlubMiejscowośćKrajKategoriaMkatK/MKlasyfikacja ŁemkowieCzas startuPuławy Górne
18.7km
Przybyszów
34.2km
Czas
netto
47.7km
Czas
brutto
47.7km
Różn.Tempo
min/km
Tempo
km/h
          
1KOCZWARA Tomasz 2002RADOMYŚL WIELKIOpen M1M 100:00:0001:28:3202:48:2104:01:42.8504:01:43.70 5:0411,8
2KOREK Michał 2136DĄBROWA GÓRNICZAOpen M2M 200:00:0001:31:2002:51:0804:03:27.3004:03:28.25+00:01:445:0611,8
3KANTOR Martyna 2383SALOMON SUUNTO TEAMKRAKÓWOpen K1K 100:00:0101:34:0402:57:0304:09:58.7504:10:00.20+00:08:165:1411,4
4WIECZOREK Nina 2001MOCNA GRUPA CEZARAOLEŚNICAOpen K2K 200:00:0201:38:1303:03:0304:20:24.3504:20:27.05+00:18:435:2711,0
5SKARŻYŃSKI Łukasz 2291WIERZBNOOpen M3M 300:02:1401:41:1804:19:12.0504:21:26.10+00:19:425:2611,0
6ŁYJAK Olga 2007ATTIQ TEAMZAKOPANEOpen K3K 300:00:0101:41:4703:08:3304:27:39.3504:27:40.80+00:25:575:3610,7
7HALSKA Ania 2003ANNA HALSKA COACHINGCIESZYNOpen K4K 400:00:0201:41:2603:15:2604:32:33.1504:32:35.70+00:30:525:4210,5
8WYSOKIŃSKI Konrad 2004MESMERIK RUNNERSPIASECZNOOpen M4M 400:00:0201:36:2003:04:3304:33:00.5504:33:02.70+00:31:195:4310,5
9JODŁOWSKI Jan 2119KRAKOWOpen M5M 500:00:0601:38:0203:08:4304:33:22.9504:33:29.50+00:31:455:4310,5
10POPIEL Andrzej 2257POPSMART.PLKRAKÓWOpen M6M 600:00:0301:38:1703:15:1704:34:04.7504:34:08.10+00:32:245:4410,4
11IWAN Małgorzata 2105MAJA TEAMGDANSKOpen K5K 500:00:0301:42:1203:15:2804:34:17.1004:34:21.00+00:32:375:4510,4
12ŁACIAK Marcin 2181MESMERIK RUNNERSWARSZAWAOpen M7M 700:00:0201:37:5503:15:2304:36:43.1004:36:45.25+00:35:015:4810,3
13MALECKA-LEŃ Patrycja 2186STAJNIA BALONARZESZÓWOpen K6K 600:00:0101:44:0203:15:3804:37:26.8004:37:28.35+00:35:445:4810,3
14STANGRECIAK Adam 2309GÓRAL Z MAZUR RUNNING TEAM / #PLANBIEGANIEŁÓDŹOpen M8M 800:00:0301:41:1403:15:2004:37:44.7004:37:48.05+00:36:045:4910,3
15PODKAŃSKI Bartosz 2252GOPR KARKONOSZEJELENIA GÓRAOpen M9M 900:00:0201:42:2103:15:3104:38:12.7504:38:15.55+00:36:315:4910,3
16PIĘKNIK Patryk 2248RZESZÓWOpen M10M 1000:00:0801:46:1503:16:5204:41:38.7004:41:47.55+00:40:035:5410,2
17WASIEWICZ Adam 2006NIE MÓJ CYRK, MOJE MAŁPYWARSZAWAOpen M11M 1100:00:0201:41:2803:15:3404:47:13.6504:47:16.50+00:45:326:0110,0
18GAIK Natalia 2071STIRLINGOpen K7K 700:00:0301:46:3903:24:0404:51:57.4004:52:00.70+00:50:176:079,8
19ŻURAWSKI Sławomir 2379PGBSPORTOWAPACZKAWARSZAWAOpen M12M 1200:00:0101:44:4903:25:4504:56:45.4504:56:47.20+00:55:036:139,6
20MALISZEWSKA Justyna 2187MOTO-MROKOLUBLINOpen K8K 800:00:0201:48:5403:28:0005:00:20.8005:00:23.60+00:58:396:179,5
21SOUSA Fernando 2304JANÓWEK DRUGIOpen M13M 1300:00:1201:48:4903:29:4105:00:17.0505:00:29.90+00:58:466:179,5
22KOWALCZYK Rafał 2141SIGMA TECHNOLOGY & ENERGY SOLUTIONSKLECZA DOLNAOpen M14M 1400:00:0701:50:1403:27:0805:02:07.8005:02:15.70+01:00:326:209,5
23JANOWSKI Adrian 2114BĘCZARKAOpen M15M 1500:00:0101:43:0903:26:1705:03:03.1505:03:04.30+01:01:206:219,4
24GLAB Krzysztof 2089VEGE RABBITSKŁOBUCKOpen M16M 1600:00:0201:48:4903:31:5905:07:26.6505:07:28.90+01:05:456:269,3
25DOROCIAK Joanna 2053NEW BALANCE RUN CLUBWARSZAWAOpen K9K 900:00:0101:46:0603:35:4605:08:14.2005:08:15.50+01:06:316:279,3
26PIECZONKA Paweł 2244PIĘKNE I BRODACZERZESZÓWOpen M17M 1700:00:2901:56:2203:39:2405:07:48.9005:08:18.25+01:06:346:279,3
27SMACZNY Bartłomiej 2299MIELECOpen M18M 1800:00:0801:50:0103:31:4105:08:50.8005:08:59.05+01:07:156:289,3
28SWOBODA Sebastian 2318TRAIL IS OUR WAYKRAKÓWOpen M19M 1900:00:0201:47:0603:30:0105:11:17.2505:11:20.05+01:09:366:319,2
29TOPORKIEWICZ Ania 2336TRAIL IS OUR WAYKRAKÓWOpen K10K 1000:00:0301:46:4703:29:5405:11:16.4005:11:20.15+01:09:366:319,2
30GIERULA Grzegorz 2085KB ATHLETIC ZRĘCINŁĘŻANYOpen M20M 2000:00:0701:49:2703:33:4705:12:43.3005:12:50.65+01:11:066:339,2
31SZPUNAR Marek 2325ŁAŃCUTOpen M21M 2100:00:0301:50:2803:35:1705:13:44.7505:13:48.65+01:12:046:349,1
32GŁADYKOWSKI Łukasz 2090PGB SPORTOWA PACZKAGNIEWOpen M22M 2200:00:0601:51:1503:38:1505:14:15.0505:14:21.90+01:12:386:359,1
33KAPŁON Anna 2123INFINITY - GYMKLIMONTÓWOpen K11K 1100:00:0201:54:3003:40:5305:15:00.9505:15:03.35+01:13:196:369,1
34KAPŁON Piotr 2124KLIMONTÓWOpen M23M 2300:00:0201:54:2503:40:4305:15:03.3505:15:05.80+01:13:226:369,1
35GORCZYŃSKI Wojciech 2092WARSZAWAOpen M24M 2400:00:2901:53:1003:39:3405:14:38.6505:15:07.65+01:13:236:359,1
36MICHTIOV Emese 2206SASHEGYI GEPÁRDOKBUDAPESTOpen K12K 1200:00:0501:57:4803:48:5205:19:36.2505:19:41.70+01:17:586:429,0
37LESIAK Tomasz 2176ŁÓDŹOpen M25M 2500:00:0801:52:1903:39:3105:19:43.7505:19:52.00+01:18:086:429,0
38KURASZKIEWICZ Robert 2164ROPCZYCEOpen M26M 2600:00:0401:52:5003:40:0405:21:52.3005:21:56.95+01:20:136:448,9
39KOWALSKI Łukasz 2143RODAKIOpen M27M 2700:00:0201:52:0503:42:0705:22:34.7005:22:37.40+01:20:536:458,9
40FERET Kamila 2062TRAIL IS OUR WAY TEAMJELENIA GÓRAOpen K13K 1300:00:0301:53:2603:43:2105:23:37.8005:23:40.80+01:21:576:478,8
41GILNER Marcin 2087HARPAGAN SOSNOWIECSOSNOWIECOpen M28M 2800:00:1001:54:0405:24:44.0005:24:54.15+01:23:106:488,8
42POLEK Jakub 2256TARNOWIECOpen M29M 2900:00:0501:53:3503:44:2705:25:02.6005:25:08.45+01:23:246:488,8
43FILIPEK Wojciech 2065OPTIM TRAVEL ULTRARZESZÓWOpen M30M 3000:00:1201:53:3303:44:3605:24:56.1005:25:08.90+01:23:256:488,8
44PELCZAR Joanna 2238TRAIL IS OUR WAY TEAMODRZYKOŃOpen K14K 1400:00:0701:59:3703:47:2305:25:11.7005:25:19.15+01:23:356:498,8
45WIEPRZOWSKI Łukasz 2354LEKARSKA GRUPA KOLARSKAWARSZAWAOpen M31M 3100:00:1801:58:4303:49:0305:25:55.3505:26:14.05+01:24:306:498,8
46JAŃCZYK Ewa 2115CHOTOMOWOpen K15K 1500:00:1702:02:0503:51:5905:26:16.6005:26:33.95+01:24:506:508,8
47ERDŐVÖLGYI Szabolcs 2061BACSZEGEDOpen M32M 3200:00:0801:52:4803:45:1605:26:36.5005:26:45.45+01:25:016:508,8
48MARUT Artur 2193FITNESS FREAKSSTALOWA WOLAOpen M33M 3300:00:1201:54:5103:43:2805:26:53.4005:27:05.75+01:25:226:518,8
49IDZIOR Tomasz 2104BRZEZINYOpen M34M 3400:00:1001:51:4303:41:2905:27:04.9505:27:15.35+01:25:316:518,8
50DUDKIEWICZ Krzysztof 2055WARSZAWAOpen M35M 3500:00:0101:49:1203:43:0305:27:23.6505:27:25.50+01:25:416:518,7
51GIERUSZKA Dariusz 2086AKTYWNA PSZCZYNA RUNNERS TEAMBYTOMOpen M36M 3600:00:0701:53:2303:39:4305:27:28.6005:27:36.20+01:25:526:518,7
52SARNIAK Marcin 2287WYBIEGANIA MPKCISIEOpen M37M 3700:00:1001:57:5803:47:2705:27:28.6505:27:39.00+01:25:556:518,7
53PAJESTKA Wojtek 2230GÓRAL Z MAZUR RUNNING TEAMSANOKOpen M38M 3800:00:2101:56:2703:50:4605:27:26.4505:27:48.10+01:26:046:518,7
54KRUKAR Adam 2153FINISZ RYMANÓWIWONICZOpen M39M 3900:00:1101:57:2003:47:1605:27:54.2005:28:05.45+01:26:216:528,7
55GAWROŃSKI Ireneusz 2081AMATORCZECHOWICE - DZIEDZICEOpen M40M 4000:00:1002:01:5803:41:4705:28:03.2505:28:14.20+01:26:306:528,7
56STRZELCZYK Ewa 2316HURAGAN LIGOTAKATOWICEOpen K16K 1600:00:0401:58:5803:51:3105:28:20.7505:28:24.95+01:26:416:528,7
57RUSIN Marcin 2280ASSECO ACTIVE TEAMRZESZÓWOpen M41M 4100:00:3202:03:3303:51:0905:28:47.8005:29:19.90+01:27:366:538,7
58KURASZ Piotr 2163KRAKÓWOpen M42M 4200:00:0601:53:4703:48:0405:29:41.9505:29:48.20+01:28:046:548,7
59SKORUPKA Piotr 2294UNBROKEN STORERZESZÓWOpen M43M 4300:00:0402:03:4003:54:5905:31:21.1005:31:25.65+01:29:416:568,6
60PÓŁCHŁOPEK Dorota 2259KORCZYNAOpen K17K 1700:00:0802:06:1803:54:4605:31:28.1005:31:36.30+01:29:526:568,6
61MAKARA Filip 2185BERLINOpen M44M 4400:00:0601:59:2103:49:0405:31:31.9505:31:38.90+01:29:556:578,6
62PORCEK Maciej 2258...ŁĘŻANYOpen M45M 4500:00:0701:53:0303:45:0605:31:55.3505:32:02.45+01:30:186:578,6
63TARNAWSKI Marcin 2332SKAWICAOpen M46M 4600:00:0401:56:1703:47:2205:32:35.3005:32:39.85+01:30:566:588,6
64JABŁOŃSKI Marek 2107PGB SPORTOWA PACZKANIEMCEOpen M47M 4700:00:1401:59:5203:52:4205:32:28.2505:32:42.25+01:30:586:588,6
65PACIOREK Ewa 2229MARKOWI BIEGACZEMARKIOpen K18K 1800:00:0302:00:3203:54:4205:32:53.2005:32:56.25+01:31:126:588,6
66KARGOL Marcin 2125SMASHING PĄPKINS / NATURAL BORN RUNNERS TEAMWARSZAWAOpen M48M 4800:00:0701:58:3503:50:0405:33:15.6505:33:23.05+01:31:396:598,6
67DUDA Zuzanna 2054WARSZAWAOpen K19K 1900:00:0102:03:0503:55:5205:35:01.0005:35:02.85+01:33:197:018,5
68REPEĆ Jarosław 2274AHOJ PRZYGODO LUBLINLUBLINOpen M49M 4900:00:1802:00:1903:53:4905:35:43.7005:36:02.45+01:34:187:028,5
69WILAMOWSKI Bartłomiej 2359RYKOWISKO TEAMWARSZAWAOpen M50M 5000:00:0602:03:5303:57:1905:36:01.0505:36:07.15+01:34:237:028,5
70HOŁÓWKA Sławomir 2101KRAKÓWOpen M51M 5100:00:0602:01:2203:51:3805:36:17.0505:36:23.90+01:34:407:028,5
71ANKIEWICZ Stefan 2012CZYSTA AMATORKAWARSZAWAOpen M52M 5200:00:0601:53:5103:48:5405:38:36.4005:38:42.65+01:36:587:058,5
72PUPCZYK Jan 2265UŚCIE GORLICKIEOpen M53M 5300:00:0301:50:2303:46:2505:38:55.4005:38:58.90+01:37:157:068,4
73GDULA Jakub 2083KAMIL LEŚNIAK - FANPAGEPOZNAŃOpen M54M 5400:00:0102:06:0703:59:0305:39:07.7505:39:09.70+01:37:267:068,4
74DZIKOWSKI Michal 2060ŻÓRAWSKI RUNNING TEAMWARSZAWAOpen M55M 5500:00:2601:53:1103:47:0805:39:04.4505:39:31.00+01:37:477:068,4
75FERET Hubert 2063DERBYOpen M56M 5600:00:0302:01:4703:51:0905:40:01.6005:40:04.60+01:38:207:078,4
76KOCOT Aleksandra 2134WARSZTAT RUCHU K. ŻEBRAKOWSKA/PODIUMRZESZÓWOpen K20K 2000:00:0402:00:3903:56:4905:40:44.1505:40:48.40+01:39:047:088,4
77PARWA Michał 2233MAGAZYN NA SZCZYCIEDZIEKANOWICEOpen M57M 5700:00:0701:59:3503:57:2905:40:43.4505:40:50.60+01:39:067:088,4
78LABURDA Kinga 2169BRZYSKI TRI TEAMKRAKÓWOpen K21K 2100:00:0902:04:1503:58:3105:41:27.1505:41:36.95+01:39:537:098,4
79ZAWADA Mateusz 2372ZARAŻENI BÓLEMWARSZAWAOpen M58M 5800:00:1302:04:1903:58:1805:41:34.7005:41:48.60+01:40:047:098,4
80STERKOWICZ Dorota 2312KRAKÓWOpen K22K 2200:00:1302:05:5903:58:3705:41:40.0505:41:53.20+01:40:097:098,4
81WAŚKIEWICZ Marek 2345WARSZAWAOpen M59M 5900:00:3702:13:4304:08:3705:41:26.5505:42:04.15+01:40:207:098,4
82HEWIG Damian 2100RUDA ŚLASKAOpen M60M 6000:00:0801:59:1903:56:4805:42:28.9505:42:37.00+01:40:537:108,4
83SIELIWONIK Anita 2289WARSZAWAOpen K23K 2300:00:0102:06:3504:00:2505:42:38.4005:42:39.70+01:40:567:108,4
84ZDEB Maciej 2373PIĘKNE I BRODACZERZESZÓWOpen M61M 6100:00:1402:03:3103:57:5605:43:31.0005:43:45.75+01:42:027:128,3
85IZDEBSKI Tomasz 2106SPORT GENERATION TEAMWARSZAWAOpen M62M 6200:00:1702:01:0103:57:5805:43:44.2505:44:02.00+01:42:187:128,3
86MATUŁA Natalia 2196TRIOOSWIECIMOpen K24K 2400:00:0202:05:4804:08:3205:44:07.5005:44:09.55+01:42:257:128,3
87CZARNECKI Bartlomiej 2039UWAGA NA DZIADALISZKIOpen M63M 6300:00:2102:17:5404:10:2105:46:02.8505:46:24.00+01:44:407:158,3
88FRANKIEWICZ Artur 2067GLIWICEOpen M64M 6400:00:1702:09:0203:57:4905:48:29.5505:48:46.80+01:47:037:188,2
89PSZENICZNA Joanna 2263VEGE RUNNERSWARSZAWAOpen K25K 2500:00:2102:01:1904:08:3805:48:39.8005:49:01.20+01:47:177:188,2
90FRYCA Karolina 2068TORUŃOpen K26K 2600:00:0302:05:4904:09:0205:49:02.5505:49:06.20+01:47:227:198,2
91CROZIER John 2034INOWŁÓDZOpen M65M 6500:00:1802:02:1004:00:1405:49:48.2505:50:06.35+01:48:227:208,2
92CYMBORSKA Jolanta 2036WARSZAWAOpen K27K 2700:00:1102:02:4204:09:4305:50:41.2005:50:52.20+01:49:087:218,2
93PIERZ Sławomir 2246ISKRZYNIAOpen M66M 6600:00:2401:56:2603:51:0405:50:43.0505:51:07.45+01:49:237:218,2
94PETA Rafał 2239BIERNAOpen M67M 6700:00:2002:03:4603:59:3105:51:01.2505:51:21.80+01:49:387:218,2
95TOPORKIEWICZ Bartosz 2335TRAIL IS OUR WAYKRAKÓWOpen M68M 6800:00:0301:58:2503:53:4405:52:01.9505:52:05.85+01:50:227:228,1
96SZABATOWSKI Bartłomiej 2319BIEGAJĄCY ŚWIDNIKKALINÓWKAOpen M69M 6900:00:1702:11:2404:11:0705:51:56.4505:52:14.30+01:50:307:228,1
97GALEWSKI Jacek 2074WARSZAWAOpen M70M 7000:00:1502:04:1404:08:5505:52:43.0005:52:58.90+01:51:157:238,1
98MŁOCKA-GORCZYŃSKA Matylda 2210WARSZAWAOpen K28K 2800:00:1302:08:1804:08:2605:52:51.9005:53:05.00+01:51:217:238,1
99ADAMUS Jakub 2009CZĘSTOCHOWAOpen M71M 7100:00:1002:05:2504:08:2605:53:55.3005:54:05.70+01:52:227:258,1
100NOWOSADZKI Wojciech 2225TRAIL IS OUR WAY TEAMSZCZEPAŃCOWAOpen M72M 7200:00:0901:57:3503:52:0305:55:43.7005:55:53.20+01:54:097:278,0
101CZAPLIŃSKI Marek 2037BIEGAMYRAZEM.PLŚWINOUJŚCIEOpen M73M 7300:00:0802:07:2304:13:3005:56:08.2005:56:17.05+01:54:337:278,0
102MRÓWKA Małgorzata 2212ŁÓDŹOpen K29K 2900:00:0302:12:4404:13:3905:56:29.5505:56:32.85+01:54:497:288,0
103OPENCHOWSKA Monika 2227PODIUM/NOCNY BÓR TEAMRZESZÓWOpen K30K 3000:00:0302:07:4604:12:5805:56:54.1005:56:58.00+01:55:147:288,0
104MITAN Kamil 2209PCIMOpen M74M 7400:00:1802:08:5104:09:3805:57:06.0005:57:24.30+01:55:407:298,0
105KRAJEWSKI Bartek 2144DCWRPKATOWICEOpen M75M 7500:00:2602:09:2504:10:1205:57:21.3505:57:47.80+01:56:047:298,0
106MYNC Angelika 2216HTF LUDWIK SIKORSKIŁÓDŻOpen K31K 3100:00:1002:11:2604:12:4205:58:18.1505:58:29.00+01:56:457:308,0
107SZYSZŁO Tomasz 2330SANOK BIEGASANOKOpen M76M 7600:00:2302:11:2804:13:0505:58:15.8005:58:39.00+01:56:557:308,0
108ZIĘTEK Katarzyna 1265JAWORZNOOpen K32K 3200:00:0902:15:0704:15:3505:58:43.1005:58:52.65+01:57:087:318,0
109PITEK Tomasz 225042K PRO TEAMŚWIERCZYNIECOpen M77M 7700:00:3802:11:4104:08:5205:58:17.2005:58:55.55+01:57:117:308,0
110PYZIK Tomasz 2269DRUŻYNA MOJACUKRZYCA.PLGLIWICEOpen M78M 7800:00:2202:08:3004:09:5405:59:33.4005:59:55.65+01:58:117:328,0
111PAWELEC Piotr 2235DALEKO JESZCZE?JASŁOOpen M79M 7900:00:3202:01:2704:09:1506:00:07.9006:00:40.70+01:58:577:327,9
112KUCHARSKI Kamil 2158KRAKÓWOpen M80M 8000:00:1002:13:5104:17:5206:01:13.6506:01:23.80+01:59:407:347,9
113GINTER Grzegorz 2088AZS COLLEGIUM MEDICUM UJKRAKÓWOpen M81M 8100:00:0702:15:0004:15:0806:01:36.7506:01:44.35+02:00:007:347,9
114GARCZYŃSKA Ania 2077KATOWICEOpen K33K 3300:00:1702:12:1304:13:3906:01:36.2006:01:53.85+02:00:107:347,9
115JAROS Mirek 2116ZIMNICE MAŁEOpen M82M 8200:00:0502:13:1104:12:5206:01:50.7506:01:56.20+02:00:127:357,9
116WÓJCIK Monika 2366ADIDAS RUNNERSWARSZAWAOpen K34K 3400:00:1402:10:0304:14:3406:01:51.9506:02:06.70+02:00:237:357,9
117FURTEK Iwona 2069LACHO TEAMKRAKÓWOpen K35K 3500:00:0401:45:5403:27:4006:02:03.2506:02:07.35+02:00:237:357,9
118ZINKIEWICZ Piotr 2377DCWRPWARSZAWAOpen M83M 8300:00:2602:09:3104:10:2106:03:22.9006:03:49.65+02:02:057:377,9
119BAŚ Tomasz 2015STOKOWCZYKI TEAMKRAKÓWOpen M84M 8400:00:0902:12:0004:16:0006:04:12.2506:04:21.95+02:02:387:387,9
120RYMARZ Robert 2282BYCHAWA RUNNER'SBYCHAWAOpen M85M 8500:00:2102:08:3704:13:1006:04:33.3506:04:54.90+02:03:117:387,9
121RZYSZKIEWICZ Tomasz 2285PĘDZĄCE LENIWCESOKOŁÓW PODLASKIOpen M86M 8600:00:1902:04:4704:09:0806:05:27.9506:05:47.85+02:04:047:397,8
122CHOMISZCZAK Bogdan 2032SANOK BIEGASANOKOpen M87M 8700:00:2302:11:3404:16:5406:05:36.1506:05:59.50+02:04:157:397,8
123CZARDYBON Laura 2038SOŚNICOWICEOpen K36K 3600:00:1202:14:4404:42:3906:07:05.3006:07:17.30+02:05:337:417,8
124PIERZCHAŁA Jacek 2247SOSNOWIECOpen M88M 8800:00:1102:15:1804:20:4106:07:05.6006:07:17.55+02:05:337:417,8
125LEŚNIAK-POPIEL Marta 2177SANOKBIEGASANOKOpen K37K 3700:00:2204:20:3406:07:11.9506:07:34.65+02:05:507:417,8
126DOMARADZKA- KASZUBOWICZ Wiktoria 2051SANOKOpen K38K 3800:00:2202:14:4304:20:3206:07:11.9006:07:34.75+02:05:517:417,8
127KOWALCZYK Paweł 2142POZNAŃOpen M89M 8900:00:3604:09:1506:07:26.8506:08:02.85+02:06:197:427,8
128CZEKAJ Katarzyna 2040GŁOWIENKAOpen K39K 3900:00:1502:09:1106:08:08.0006:08:23.95+02:06:407:437,8
129BARTOSIEWICZ Adam 2014GRYFINOOpen M90M 9000:00:1202:15:0204:19:2206:08:17.4006:08:30.20+02:06:467:437,8
130WIKLIŃSKI Jarosław 2358CZYSTA AMATORKAMARKIOpen M91M 9100:00:0602:08:4204:15:3106:09:22.4506:09:28.50+02:07:447:447,7
131SZUBERT-WALENCZAK Magdalena 2326TEAM ZABIEGANEDNIWARSZAWAOpen K40K 4000:00:1002:14:3304:20:3706:09:38.3006:09:49.25+02:08:057:447,7
132DZIDECZEK Marcin 2059WARSZAWAOpen M92M 9200:00:1002:11:4404:23:0406:09:40.4506:09:51.40+02:08:077:447,7
133RZYMOWSKA Krystyna 2284WARSZAWAOpen K41K 4100:00:1902:16:0804:22:2806:09:59.6006:10:19.25+02:08:357:457,7
134KUNKEL Anna 2161PGB SPORTOWA PACZKAGDAŃSKOpen K42K 4200:00:0602:14:1504:24:4506:10:31.4506:10:37.80+02:08:547:467,7
135KUNKEL Mariusz 2160SMARUJ NA TRENINGGDAŃSKOpen M93M 9300:00:0602:14:1604:24:5706:10:31.6006:10:38.10+02:08:547:467,7
136SOBOTKA Monika 2302NBRCWARSZAWAOpen K43K 4300:00:1002:08:5104:18:4106:11:19.1506:11:30.10+02:09:467:477,7
137KOT Iga 2139PARKRUN RZESZÓWRZESZÓWOpen K44K 4400:00:0402:14:1104:22:3806:11:32.0006:11:36.80+02:09:537:477,7
137OWSKA Justyna 2228CHMIELNIKOpen K44K 4400:00:0402:14:0904:22:3306:11:32.1506:11:36.80+02:09:537:477,7
139DOBOSZYNSKI Rafal 2048WIĄZOWNAOpen M94M 9400:00:1602:08:0504:13:5206:11:23.4006:11:40.15+02:09:567:477,7
140BEŁZAK Filip 2017TRIJET TEAMKRAKÓWOpen M95M 9500:00:0902:13:5704:17:5606:12:52.9506:13:02.75+02:11:197:497,7
141SMODEREK Robert 2300GÓRAL Z MAZUR RUNNING TEAMZIELONKAOpen M96M 9600:00:0502:02:1904:19:5306:13:30.2506:13:35.80+02:11:527:497,7
142LACH-BRZOZOWSKA Edyta 2170GÓRAL Z MAZUR RUNNING TEAMZIELONKAOpen K46K 4600:00:0502:12:2504:20:0906:13:29.9006:13:35.85+02:11:527:497,7
143NOWAK Adam 2222TRI&MOREGLIWICEOpen M97M 9700:00:1602:04:5904:13:0806:13:45.3006:14:01.55+02:12:177:507,7
144ZACHARIASZ Agnieszka 2370BIEGOWA KUŹNIAGRÓDKÓWOpen K47K 4700:00:0402:22:1204:27:2506:15:31.6506:15:36.20+02:13:527:527,6
145GĘSIAREK Grzegorz 2084KROTOSZYNOpen M98M 9800:00:1202:05:5204:10:0806:16:05.0006:16:17.80+02:14:347:537,6
146REDKIEWICZ Agnieszka 2273WARSZAWAOpen K48K 4800:00:1102:12:5304:22:0906:16:12.6006:16:23.85+02:14:407:537,6
147CEBO Katarzyna 2026RUNPROGRESS.PL TEAMKRAKÓWOpen K49K 4900:00:3002:22:1704:24:4906:16:11.3506:16:41.45+02:14:577:537,6
148TOMKIEWICZ Przemysław 2334WARSZAWAOpen M99M 9900:00:1602:08:4404:17:0506:16:45.9506:17:02.15+02:15:187:537,6
149MAŚLANY Mariusz 2195ELEKTROMETAL ENERGETYKA SAWARSZAWAOpen M100M 10000:00:1602:08:4104:16:3806:16:46.1006:17:02.25+02:15:187:537,6
150ROGOWSKA Daria 2276VEGE RUNNERSMIELECOpen K50K 5000:00:0502:10:1404:26:2406:16:59.7506:17:05.00+02:15:217:547,6
151ZIELIŃSKA-KOŁACZ Ewelina 2374MOJEBIEGANIEKRAKÓWOpen K51K 5100:00:0502:10:1304:24:0106:16:59.8506:17:05.05+02:15:217:547,6
152RUSIN Piotr 2281ALBOTERAZALBONIGDYKRAKÓWOpen M101M 10100:00:3302:16:3104:24:5506:16:54.9506:17:28.10+02:15:447:547,6
153PARTYKA Sebastian 2232DZIKITIM/PROSWIMSOKOŁÓW MAŁOPOLSKIOpen M102M 10200:00:3502:21:3304:34:1106:17:14.5006:17:49.60+02:16:057:547,6
154KONIKIEWICZ Kamil 2135WARSZAWAOpen M103M 10300:00:2202:14:5404:21:1506:17:37.4506:17:59.60+02:16:157:547,6
155WRZOS Paweł 2368DZIKITIMSOKOŁÓW MAŁOPOLSKIOpen M104M 10400:00:3502:21:3204:34:0406:18:01.5006:18:36.90+02:16:537:557,6
156WRZOS Natalia 2369DZIKITIMSOKOŁÓW MAŁOPOLSKIOpen K52K 5200:00:3502:21:3304:33:4806:18:01.9506:18:37.20+02:16:537:557,6
157STACHOWSKI Wojciech 2308TRI&MOREGLIWICEOpen M105M 10500:00:3802:15:5604:21:3806:19:00.2006:19:38.35+02:17:547:567,6
158BĄK Paulina 2016WIĘCKOWICEOpen K53K 5300:00:2804:28:2006:19:12.3006:19:40.45+02:17:567:567,5
159MROZIŃSKI Marcin 2211SPORTGENERATIONBIENIEWICEOpen M106M 10600:00:1702:21:2004:27:2906:19:34.5506:19:52.40+02:18:087:577,5
160SKOKOWSKI Jacek 2292FARTY PUSZCZY SZCZECINSZCZECINOpen M107M 10700:00:1102:21:3804:32:0106:20:24.8506:20:36.15+02:18:527:587,5
161KASPRZYCKA Kinga 2127SYMETRIAKROSNOOpen K54K 5400:00:2702:19:5604:35:0506:22:05.4506:22:32.50+02:20:488:007,5
162MIĄSIK Marcin 2200S2WKROSNOOpen M108M 10800:00:2602:19:5404:35:0806:22:05.7506:22:32.65+02:20:488:007,5
163PASZEK Tomasz 2234PRZEŁĘCZ DUKLAKRAKÓWOpen M109M 10900:00:3102:08:0404:15:2606:22:14.6506:22:45.90+02:21:028:007,5
164MARCINEK Łukasz 2190SIEMIANOWICE ŚLĄSKIEOpen M110M 11000:00:0802:12:4004:25:0306:22:47.9506:22:56.75+02:21:138:017,5
165WASIEWICZ Jolanta 2344MEEWARSZAWAOpen K55K 5500:00:0502:19:5704:34:1406:23:21.8006:23:27.75+02:21:448:027,5
166CHODZIŃSKI Piotr 2029RZESZÓWOpen M111M 11100:00:3702:17:4504:20:3906:23:36.8506:24:14.15+02:22:308:027,5
167CHMURA Łukasz 2028NAPRZÓD MŁOCINYWARSZAWAOpen M112M 11200:00:3502:10:5904:20:5906:23:50.0506:24:25.80+02:22:428:027,5
168TRZYSZCZYK Julia 2339WIELKIE DROGIOpen K56K 5600:00:1402:23:2504:35:3006:24:27.7506:24:42.35+02:22:588:037,4
169RAJCZONEK Rafał 2272WARSZAWAOpen M113M 11300:00:1302:12:4804:32:2206:24:56.0506:25:09.25+02:23:258:047,4
170KRASOWSKI Mateusz 2145PROSWIMLEŻAJSKOpen M114M 11400:00:0501:55:2704:08:4906:25:45.9506:25:51.10+02:24:078:057,4
171SOWIAR Maciej 2305LAS PAPASKIELCEOpen M115M 11500:00:3602:24:4104:35:3906:25:48.5506:26:24.70+02:24:418:057,4
172HRABEC KOTULKOVA Sona 2102RUNNING2.CZ/COLUMBIAPRAHAOpen K57K 5700:00:0902:26:2604:36:3006:26:21.4006:26:30.90+02:24:478:057,4
173WIĘCH Mariusz 2356WROCŁAWOpen M116M 11600:00:0102:07:3104:18:2606:26:29.6506:26:31.30+02:24:478:067,4
174MYJAK Paweł 2215UKS FENIX RUN TEAMŁABOWAOpen M117M 11700:00:3902:16:4804:28:0606:26:01.0006:26:40.80+02:24:578:057,4
175DYMARZ Laura 2382WIELICZKAOpen K58K 5800:00:0302:16:1504:26:1806:26:50.4006:26:54.05+02:25:108:067,4
176KIELAR Łukasz 2130KOSZALINOpen M118M 11800:00:2102:19:3304:34:2706:26:54.2006:27:15.75+02:25:328:067,4
177DUTKOWIAK Aleksandra 2057PIĄTKOWO NA BIEGOWOPOZNAŃOpen K59K 5900:00:1402:20:1604:34:3006:27:15.0506:27:29.35+02:25:458:077,4
178KURAS Olga 2162NUNEK SPITFIREKRAKÓWOpen K60K 6000:00:1102:19:5304:34:5906:27:31.9006:27:43.45+02:25:598:077,4
179TARNOWSKI Marcin 2333JACEKBIEGA RUNNING TEAMWARSZAWAOpen M119M 11900:00:2302:17:4504:32:2006:28:27.0006:28:50.60+02:27:068:087,4
180UBYSZ Marek 2341JACEK BIEGA RUNNUNG TEAMWARSZAWAOpen M120M 12000:00:2302:17:4604:32:2206:28:28.3506:28:51.65+02:27:078:087,4
181MASARCZYK Szymon 2194TRI&MOREGLIWICEOpen M121M 12100:00:0201:49:5104:13:0306:29:30.1506:29:32.20+02:27:488:097,3
182WEDRAL Luiza 2347WROCLAWOpen K61K 6100:00:2602:22:3904:34:2506:29:37.0506:30:03.50+02:28:198:107,3
183SZYDŁOWSKI Robert 2329WROCŁAWOpen M122M 12200:00:0602:08:5704:22:2006:30:24.6506:30:31.10+02:28:478:117,3
184PANZ Krzysztof 2231KLESZCZÓWOpen M123M 12300:00:1502:11:0404:24:2806:32:02.5006:32:18.20+02:30:348:137,3
185LUBOWIECKA Katarzyna 2180WARSZAWAOpen K62K 6200:00:1102:15:1204:32:2706:32:40.0506:32:51.40+02:31:078:137,3
186MIKOŁAJCZYK Henryk 2207RZESZOWSKI KLUB KYOKUSHIN DOJO SOKÓLRZESZÓWOpen M124M 12400:00:2302:24:3904:37:0206:33:48.8006:34:12.10+02:32:288:157,3
187POGODA Adam 2255MIELECOpen M125M 12500:00:0802:15:0304:26:1806:34:10.7006:34:18.70+02:32:358:157,3
188KRÓLICKI Dariusz 2151FINISZ RYMANÓWRYMANÓWOpen M126M 12600:00:0802:17:5004:34:5006:34:11.8506:34:20.05+02:32:368:157,3
189STAROŃSKA Magdalena 2311BIEGAM NA TRACHOMINIEWARSZAWAOpen K63K 6300:00:1402:17:3404:37:2106:35:29.9506:35:44.00+02:34:008:177,2
190MICHALSKA Bogna 2203GLIWICEOpen K64K 6400:00:1602:20:2604:38:2306:35:31.0506:35:47.80+02:34:048:177,2
191SZALAJ Pawel 2320BCD RUNNING TEAMDWORPOpen M127M 12700:00:2402:14:1404:35:3206:36:01.2506:36:26.10+02:34:428:187,2
192WIEDERMANN Krzysztof 2352KOBYLANYOpen M128M 12800:00:2102:12:0004:31:4806:36:47.7006:37:09.65+02:35:258:197,2
193WIECZOREK Piotr 2351CZYSTA AMATORKAPRUSZKÓWOpen M129M 12900:00:0602:15:2504:34:3506:38:16.8506:38:23.80+02:36:408:207,2
194DOŁŻYCKI Paweł 2050ŻBIK-KOMAŃCZAKOMAŃCZAOpen M130M 13000:00:0802:09:0904:34:0906:38:35.6006:38:44.10+02:37:008:217,2
195GALANT Marek 2072PABIANICEOpen M131M 13100:00:1802:21:2204:38:2506:38:52.7506:39:11.35+02:37:278:217,2
196RADKOWSKI Piotr 2271KRAKÓWOpen M132M 13200:00:2002:23:2704:36:0006:39:10.6006:39:31.30+02:37:478:227,2
197SOWIAR Mateusz 2306LAS PAPASKRAKÓWOpen M133M 13300:00:3502:24:4004:36:0006:38:55.8006:39:31.50+02:37:478:217,2
198PIECZARKOWSKA Zuzanna 2243KKM KALORYFERKRAKÓWOpen K65K 6500:00:2502:20:5604:34:3006:39:07.6006:39:33.10+02:37:498:227,2
199MRÓZ Bartłomiej 2213KRAKÓWOpen M134M 13400:00:2502:20:5704:34:2806:39:07.5506:39:33.25+02:37:498:227,2
200URBANOWICZ Łukasz 2342KRAKÓWOpen M135M 13500:00:2302:18:0704:35:0706:39:18.0506:39:41.85+02:37:588:227,2
201ŁATKOWSKI Łukasz 2183GRUPA BIEGOWA CHTMOCHOTOMÓWOpen M136M 13600:00:1402:21:5104:42:5906:39:31.7506:39:45.75+02:38:028:227,2
202ŁATKOWSKA Monika 2182CHOTOMÓWOpen K66K 6600:00:1302:21:5404:42:5706:39:32.4006:39:46.10+02:38:028:227,2
203RUCIŃSKI Adam 2278WARSZAWAOpen M137M 13700:01:1402:25:0704:41:3906:41:02.0506:42:16.35+02:40:328:247,1
204FILIPEK Igor 2066CHESTEROpen M138M 13800:00:3202:15:5304:36:2006:42:38.9006:43:11.70+02:41:288:267,1
205KRÓL Kamil 2150IM INSPIRATIONPIASECZNOOpen M139M 13900:00:3202:15:5404:36:2206:42:39.6506:43:12.00+02:41:288:267,1
206KARWETA Marek 2126FUJITSU RUNNING TEAMKATOWICEOpen M140M 14000:00:2202:06:3304:33:5906:43:49.0506:44:11.50+02:42:278:277,1
207BOLIGŁOWA Małgorzata 2020KRAKÓWOpen K67K 6700:00:2902:29:1504:42:1606:43:43.4006:44:13.00+02:42:298:277,1
208KINDELA Michał 2131ŁÓDŹOpen M141M 14100:00:3102:22:3106:43:53.5006:44:25.35+02:42:418:287,1
209WITKOWSKA Beata 2360#KASZANIENAMOKAGDAŃSKOpen K68K 6800:00:3602:43:3005:03:4206:44:05.8006:44:42.55+02:42:588:287,1
210ĆWIĄKAŁA Michał 2042MEESIEQ LAZY RUNNERZARSZYNOpen M142M 14200:00:1902:16:3604:35:2706:44:26.5006:44:46.00+02:43:028:287,1
210JAKUBIEC Katarzyna 2110RZESZÓWOpen K69K 6900:00:1902:16:3704:37:1006:44:26.8006:44:46.00+02:43:028:287,1
212PRĘDKI Jerzy 2260WYBIEGAMY W PRZYSZŁOŚĆHERMANOWAOpen M143M 14300:00:1802:18:0004:36:4406:44:27.4506:44:46.15+02:43:028:287,1
213MAZEK Łukasz 2197STOPKAPILAWAOpen M144M 14400:00:2202:18:2404:36:5006:44:51.0506:45:13.50+02:43:298:297,1
214CZŁONKOWSKI Grzegorz 2041DOMDATA RUN TEAM / DZIKI Z MORASKAPOZNAŃOpen M145M 14500:00:2902:29:1504:20:2106:44:58.1506:45:27.60+02:43:438:297,1
215PŁAWECKA Katarzyna 2381PSZCZYNA BIEGAPSZCZYNAOpen K70K 7000:00:2802:23:0304:42:1906:45:51.4006:46:19.85+02:44:368:307,1
216DOBROWOLSKI Patryk 2049DĘBICAOpen M146M 14600:00:1402:17:0604:38:4006:47:57.7506:48:11.75+02:46:288:337,0
217LIBERACKI Grzegorz 2178LIBERATOR NOWY SĄCZNOWY SĄCZOpen M147M 14700:00:4102:25:3406:47:59.3006:48:41.10+02:46:578:337,0
218PUNIACH Edyta 2264KRAKÓWOpen K71K 7100:00:3102:37:3105:01:1606:48:11.5506:48:43.30+02:46:598:337,0
219ĆWIĄKAŁA Paweł 2043KW KRAKÓWKRAKÓWOpen M148M 14800:00:3102:37:3105:01:1406:48:11.5506:48:43.40+02:46:598:337,0
220SZULECKA Kamila 2327ŁÓDŹOpen K72K 7200:00:1102:28:4706:48:40.3506:48:51.50+02:47:078:347,0
221SZELĄGIEWICZ Arek 2321CI OD RUDEGO KOTASZCZECINOpen M149M 14900:00:1202:20:2606:49:10.2506:49:22.70+02:47:398:347,0
222PŁATEK Dominik 2251WROCŁAWOpen M150M 15000:00:2502:11:4504:35:4106:49:21.2006:49:46.25+02:48:028:347,0
223TWOMEY Mark 2340RUN FATBOY RUNWARSZAWAOpen M151M 15100:00:3602:23:2004:42:3206:51:19.4006:51:56.15+02:50:128:377,0
224DĄBROWSKI Michal 2046OSTRÓW MAZOWIECKAOpen M152M 15200:00:2702:12:2805:00:4206:51:39.9006:52:07.45+02:50:238:377,0
225CROZIER Dawid 2035INOWŁÓDZOpen M153M 15300:00:1802:09:0704:36:3906:52:01.8506:52:20.00+02:50:368:386,9
226SZUSZKIEWICZ Marzena 2328WARSZAWAOpen K73K 7300:00:3702:28:3605:00:4506:52:54.1006:53:31.55+02:51:478:396,9
227KUŹNIAK Martyna 2166WARSZAWAOpen K74K 7400:00:1002:32:2505:04:4006:54:33.2006:54:43.50+02:52:598:416,9
228STOPA Marcin 2315URZĄD MIASTA RZESZOWABOGUCHWAŁAOpen M154M 15400:00:0502:18:4106:56:06.2006:56:11.65+02:54:278:436,9
229GZULA Beata 2097TEAM PARSZCZYŃSKICHWARSZAWAOpen K75K 7500:00:2902:30:2705:00:5006:56:33.1006:57:02.70+02:55:198:436,9
230MARSZAŁEK Marcin 2191SIEMIANOWICE I PRZYJACIELE BIEGAJĄSIEMIANOWICE ŚLĄSKIEOpen M155M 15500:00:3902:34:0505:01:5006:59:03.8006:59:43.00+02:57:598:476,8
231SOBCZYK-SPYT Agata 2301ZABRZEOpen K76K 7600:00:1402:28:2905:03:5006:59:28.9006:59:43.50+02:57:598:476,8
232BUSZTA Robert 2025AKTYWNE ŻYCIE 50+WARSZAWAOpen M156M 15600:00:2902:27:0605:00:5607:00:21.1507:00:50.15+02:59:068:486,8
233LALEWICZ Wojciech 2172ASSECO ACTIVE TEAMRADONIEOpen M157M 15700:00:3902:22:5805:01:4207:01:05.4007:01:44.45+03:00:008:496,8
234KUNERT Krzysztof 2159KATOWICEOpen M158M 15800:00:3802:31:4605:03:3807:01:07.5507:01:46.20+03:00:028:496,8
235GAWLIK Andrzej 2080STALOWA WOLAOpen M159M 15900:00:1502:18:3605:00:4807:02:08.1507:02:23.40+03:00:398:506,8
236SLUZALEK Małgorzata 2298TRI&MOREGLIWICEOpen K77K 7700:00:3902:34:0705:01:5207:01:52.0007:02:31.15+03:00:478:506,8
237BRUSSEL Rinke 2024TERVURENOpen M160M 16000:00:3302:30:5305:03:0207:02:36.7507:03:10.10+03:01:268:516,8
237WIDAWSKA Katarzyna 2349VIENNAOpen K78K 7800:00:3302:30:5105:02:0807:02:36.7007:03:10.10+03:01:268:516,8
239TROJANOWSKA Małgorzata 2337TRAIL IS OUR WAYŁÓDŹOpen K79K 7900:00:3302:36:0505:03:0607:02:37.1507:03:10.70+03:01:278:516,8
240MACIOŁ Sebastian 2184TTA BIERUŃBIERUŃOpen M161M 16100:05:0304:58:5006:58:35.2007:03:38.70+03:01:558:466,8
241SKROBEK Karolina 2296VEGE RABBITSRUDNIKIOpen K80K 8000:00:1702:27:2907:03:22.4007:03:39.45+03:01:558:526,8
242NELKE Tomasz 2218RUSA GTRPOZNAŃOpen M162M 16200:00:2002:27:2507:03:18.8007:03:39.75+03:01:568:526,8
242STOLINSKI Dominik 2314POZNANOpen M162M 16200:00:2002:24:3607:03:18.9007:03:39.75+03:01:568:526,8
244PELCZAR Paweł 2237KRAKÓWOpen M164M 16400:00:2102:25:2207:03:57.5507:04:18.90+03:02:358:536,8
245KRUCZEK Robert 2152WARSZTAT RUCHU KATARZYNA ŻEBRAKOWSKARZESZÓWOpen M165M 16500:00:0502:22:2205:02:2107:04:26.8507:04:32.30+03:02:488:536,7
246KOTOWICZ Iwona 2140PODIUMRZESZÓWOpen K81K 8100:00:0402:19:1805:02:1907:04:27.8007:04:32.50+03:02:488:536,7
247KRYJAK Tomasz 2155KRAKÓWOpen M166M 16600:00:3102:37:3705:04:4007:05:07.5007:05:39.00+03:03:558:546,7
248ANDRZEJCZYK Grzegorz 2011KRAKÓWOpen M167M 16700:00:3602:33:4605:01:5907:05:44.4507:06:20.95+03:04:378:556,7
249WOJEWODA Renata 2361KAZIKI/TRIWAWA - KOCHAM WASWARSZAWAOpen K82K 8200:00:2802:27:5405:04:2007:07:30.8007:07:59.00+03:06:158:576,7
250PINKIEWCZ Mateusz 2249WARSZAWAOpen M168M 16800:00:3402:25:1305:02:0407:08:44.8507:09:19.15+03:07:358:596,7
251SIKORA Agnieszka 2290MATNER RUNNING TEAMKARWIANYOpen K83K 8300:00:2602:29:3907:09:29.7507:09:56.60+03:08:129:006,7
252DABROWSKI Dariusz 2044HANKA PARTYZANTKAJÓZEFOSŁAWOpen M169M 16900:00:0402:20:3805:01:3007:10:52.3007:10:56.80+03:09:139:016,6
253LEMIEC Agnieszka 2175PŁOCKOpen K84K 8400:00:4002:32:2605:04:0507:10:30.6007:11:11.55+03:09:279:016,6
254MICHOWSKA Anna 2204HEŃTEAMLUBLINOpen K85K 8500:00:0302:27:2305:03:4107:11:18.6007:11:22.50+03:09:389:026,6
255SOCHA Sebastian 2303STALOWA WOLAOpen M170M 17000:00:1402:20:3405:01:4107:12:45.9507:13:00.75+03:11:179:046,6
256JAKUBISIAK Renata 2111BIEGAM NA TARCHOMINIEWARSZAWAOpen K86K 8600:00:1502:27:1205:03:3207:12:50.2507:13:05.65+03:11:219:046,6
257LACHOWSKI Karol 2171FILIP RUNNING TEAMWARSZAWAOpen M171M 17100:00:1502:26:1505:03:3507:12:50.5007:13:05.90+03:11:229:046,6
258WÓJTOWICZ Paweł 2367KURÓWOpen M172M 17200:00:1302:30:4505:05:0707:13:22.0507:13:35.25+03:11:519:056,6
259NOWAK Marcin 2223RADZYMINOpen M173M 17300:00:3002:31:4507:13:29.1507:13:59.65+03:12:159:056,6
260WOŁOWIEC Krzysztof 2364LABORATORYJNIE.PLKIELCEOpen M174M 17400:00:3002:24:4105:03:3207:13:45.2007:14:15.90+03:12:329:056,6
261WIERZBICKA Ewa 2355NAGÓRZANYOpen K87K 8700:00:1202:27:5805:03:2607:14:06.9007:14:18.90+03:12:359:066,6
262KAWIK Janusz 2129ZEBRZYDOWICEOpen M175M 17500:00:2402:26:5705:01:5107:14:02.1507:14:26.25+03:12:429:056,6
263PROCHOWICZ Dominik 2261WARSZAWAOpen M176M 17600:00:2502:29:1005:04:3107:14:37.5007:15:02.95+03:13:199:066,6
264PUSZCZYKOWSKA Małgorzata 2266INOWŁÓDZOpen K88K 8800:00:1902:41:1505:06:3307:16:10.4507:16:29.80+03:14:469:086,6
265PUSZCZYKOWSKI Grzegorz 2267INOWŁÓDZOpen M177M 17700:00:1802:41:2805:06:3107:16:11.2007:16:30.10+03:14:469:086,6
266WIĘSIK Michał 2357OTWOCKOpen M178M 17800:00:3202:17:3407:16:23.5007:16:55.90+03:15:129:086,6
267PAWLIKOWSKA Monika 2236WROCŁAWOpen K89K 8900:00:2802:41:2705:07:4007:16:50.9007:17:19.75+03:15:369:096,6
268LEKS-MASZKOWSKA Ryszarda 2174OBORYGENILUBNÓWOpen K90K 9000:00:0702:31:5405:05:1007:17:50.9507:17:58.00+03:16:149:106,5
269WOJEWODA Michał 2362KAZIKIWARSZAWAOpen M179M 17900:00:2802:28:4805:09:1107:17:47.8007:18:15.85+03:16:329:106,5
270PODOLAK Agnieszka 2253PIĘKNE I BRODACZERZESZÓWOpen K91K 9100:00:1402:28:2605:03:5607:19:03.5507:19:18.30+03:17:349:126,5
271NIEDZIELSKA Anna 2221WARSZAWAOpen K92K 9200:00:2802:29:1005:09:0807:18:59.6007:19:28.05+03:17:449:126,5
272MENDOCHA Jakub 2199MARYSINOpen M180M 18000:00:1302:38:1305:06:4207:20:05.4507:20:19.00+03:18:359:136,5
273RZUCIDŁO Paweł 2283OLSZOWICEOpen M181M 18100:00:3302:30:5405:06:1307:21:14.6507:21:48.10+03:20:049:156,5
274KROSZKA Krzysztof 2149STEPSTONE RUNNING TEAMWARSZAWAOpen M182M 18200:00:3002:31:4705:06:5007:25:13.2507:25:43.75+03:24:009:206,4
275MISZCZYK Marcin 2208KRAKÓWOpen M183M 18300:00:2402:38:3805:08:5507:25:45.1507:26:09.55+03:24:259:206,4
276GÓRAJ Maciej 2093YOLO:)ILAWAOpen M184M 18400:00:3202:36:1505:07:2607:25:54.3007:26:26.55+03:24:429:206,4
277BARSZCZ Marcin 2013SPARTA LUBLINLUBLINOpen M185M 18500:00:0802:30:3905:06:2107:27:17.1507:27:26.10+03:25:429:226,4
278NAWROT Waldek 2217J U V E R U NKRAKÓWOpen M186M 18600:00:2502:30:5605:07:0007:29:04.4007:29:30.30+03:27:469:246,4
279AGÓCS Róbert 2010ANGYALCIPŐKHORTOpen M187M 18700:00:2402:27:1705:10:2707:29:50.6507:30:14.75+03:28:319:256,4
280NEUMANN Łukasz 2219BRAKROKITKIOpen M188M 18800:00:1602:35:1605:06:4207:30:39.9007:30:56.85+03:29:139:266,4
281KRAWCZYK Jakub 2146IWONICZOpen M189M 18900:00:3502:37:0805:12:0107:31:56.2007:32:31.30+03:30:479:286,3
282KRUPCZYŃSKI Mariusz 2154KRUPOLSTEAMRASZYNOpen M190M 19000:00:3102:28:1605:04:2207:33:42.0007:34:13.10+03:32:299:306,3
283CHRÓŚCIAK Paweł 2033TOMICEOpen M191M 19100:00:4002:46:5905:18:1307:33:43.0507:34:23.40+03:32:399:306,3
284LASOTA Michal 2173WARSZAWAOpen M192M 19200:00:3402:35:3205:15:2507:33:59.7507:34:34.40+03:32:509:316,3
285BRODZIUK Anna 2022GRUPA BIEGOWA UM W-WAWARSZAWAOpen K93K 9300:00:1902:36:5205:06:4207:34:22.9007:34:42.60+03:32:589:316,3
286MARSZAŁEK Marcin 2192OK! SPORTPARZNIEWOpen M193M 19300:00:2502:30:0405:05:4607:36:32.9507:36:58.25+03:35:149:346,3
287MAŁEK Paweł 2188POCZTOWA GRUPA BIEGOWA SPORTOWA PACZKARZESZÓWOpen M194M 19400:00:2102:31:5505:10:2807:38:12.5007:38:34.25+03:36:509:366,2
288GAWĘDZKA Aneta 2079OBORYGENIOBORNIKI ŚLĄSKIEOpen K94K 9400:00:0602:34:5905:17:3507:38:27.4007:38:34.35+03:36:509:366,2
289KROSZKA Beata 2148TEAMZABIEGANEDNIWARSZAWAOpen K95K 9500:00:1202:47:2105:27:1907:42:39.8007:42:51.80+03:41:089:416,2
290WALKOWSKA Justyna 2343WILD ULTRA WARRIORSNOWA IWICZNAOpen K96K 9600:00:2902:40:5307:42:57.2507:43:26.35+03:41:429:426,2
291KACPRZAK Konrad 2121ŁÓDŹOpen M195M 19500:00:2702:43:0005:26:5107:43:02.1007:43:29.30+03:41:459:426,2
292SKRZYPEK Robert 2297BIEGNIJ Z PROSERVICEPIASECZNOOpen M196M 19600:00:3002:35:5005:28:3307:43:38.2507:44:09.05+03:42:259:436,2
293JANKOWY Waldemar 2113ŁÓDŹOpen M197M 19700:00:0202:34:1905:17:5507:46:16.3507:46:18.60+03:44:349:466,1
294SKONIECZNA NOWAK Katarzyna 2293TRICERATOPSSWARZĘDZOpen K97K 9700:00:1902:40:4405:31:0107:47:15.4507:47:34.65+03:45:509:476,1
295STĘPIEŃ Małgorzata 2313MIĘKOWOOpen K98K 9800:00:2002:40:4305:30:5807:47:14.6007:47:34.75+03:45:519:476,1
296FIJAŁKOWSKA Karolina 2064LUBLINOpen K99K 9900:00:1702:59:1705:34:4707:48:17.6507:48:35.15+03:46:519:496,1
297BOROWIEC-RÓŻYCKA Magdalena 2021BIEGAJĄCY ŚWIDNIKŚWIDNIKOpen K100K 10000:00:1702:59:1605:37:3407:48:17.7007:48:35.55+03:46:519:496,1
298SZEWCZYK Radosław 2322ŁÓDŹOpen M198M 19800:00:2702:35:3105:24:1207:58:12.9007:58:40.25+03:56:5610:016,0
Przekroczony limit czasu: 08:00:00
299ZASŁONKA Paweł 2371WARSZAWAOpen M199M 19900:00:1402:55:5005:38:4308:00:03.8508:00:18.15+03:58:3410:036,0
300STACHAŃCZYK Wojciech 2307WROCLAWOpen M200M 20000:00:2602:51:1105:38:2108:03:25.4008:03:52.00+04:02:0810:085,9
301DOMARECKA Izabela 2052RUDZICKA STRZAŁARUDZICAOpen K101K 10100:00:4102:48:0705:46:2408:06:57.6008:07:38.65+04:05:5410:125,9
302SZKLANNY-RECLIK Elżbieta 2324AKTYWNA PSZCZYNA RUNNERS TEAMPSZCZYNAOpen K102K 10200:00:2803:01:0705:57:1408:15:18.0508:15:46.45+04:14:0210:235,8
303MICHALCZUK Zenon 2201SANOKOpen M201M 20100:00:4202:59:4106:12:1208:37:32.0008:38:14.15+04:36:3010:505,5
304GALESKI Stanislaw 2073LODZOpen M202M 20200:00:0702:55:5906:12:5108:49:21.9508:49:29.90+04:47:4611:055,4
305JANASZ Filip 2112BELVAUXOpen M203M 20300:00:0802:56:0706:12:5308:49:21.4508:49:30.25+04:47:4611:055,4
306RURKA Grzegorz 2279SAMBIEGAMWARSZAWAOpen M204M 20400:00:4002:55:0906:23:4909:16:26.7009:17:07.60+05:15:2311:395,1
Niesklasyfikowani
NEY Patrick 2220WARSZAWAOpen MDNF DNF04:35:23 DNF DNF DNF--
ZYCH Andrzej 2378BRZESKOOpen MDNF02:01:22 DNF DNF DNF DNF--
PIĄTY Kamil 2241MIKOŁÓWOpen MDNF02:32:53 DNF DNF DNF DNF--
HAUTON Monika 2099NIE TERAZ, POTEMSOSNOWIECOpen KDNF04:14:43 DNF DNF DNF DNF--
Znaleziono 310 wynik(ów)